Time;durP1;ratioP1;P1;durP2;ratioP2;P2;SDS_P1;SDS_P2;PMS_P1;PMS_P2;Temp;Humidity;BMP_temperature;BMP_pressure;BME280_temperature;BME280_humidity;BME280_pressure;Samples;Min_cycle;Max_cycle;Signal;HPM_P1;HPM_P2
2023/02/20 00:02:25;;;;;;;11.85;6.00;;;9.10;99.90;;;;;;5050557;28;20029;-72
2023/02/20 00:04:50;;;;;;;12.27;6.05;;;9.10;99.90;;;;;;5050088;28;20094;-73
2023/02/20 00:07:16;;;;;;;9.02;5.07;;;9.00;99.90;;;;;;5050704;28;20025;-73
2023/02/20 00:09:42;;;;;;;11.40;5.50;;;9.10;99.90;;;;;;5050413;28;20048;-72
2023/02/20 00:12:08;;;;;;;13.73;5.40;;;9.10;99.90;;;;;;5050685;28;20021;-74
2023/02/20 00:14:33;;;;;;;8.68;5.22;;;9.10;99.90;;;;;;5050516;28;20116;-73
2023/02/20 00:16:59;;;;;;;10.77;4.82;;;9.00;99.90;;;;;;5050190;28;20523;-73
2023/02/20 00:19:25;;;;;;;8.35;5.13;;;8.90;99.90;;;;;;5050860;28;20036;-73
2023/02/20 00:21:51;;;;;;;7.28;4.55;;;8.80;99.90;;;;;;5050363;28;20087;-72
2023/02/20 00:24:17;;;;;;;9.65;4.82;;;8.90;99.90;;;;;;5050487;28;20036;-73
2023/02/20 00:26:51;;;;;;;9.68;4.30;;;8.90;99.90;;;;;;5050385;28;20037;-74
2023/02/20 00:29:18;;;;;;;8.07;4.70;;;8.90;99.90;;;;;;5049325;28;20477;-72
2023/02/20 00:31:53;;;;;;;7.85;3.72;;;8.70;99.90;;;;;;5049783;28;20029;-73
2023/02/20 00:34:20;;;;;;;7.07;4.30;;;8.80;99.90;;;;;;5051813;28;20045;-73
2023/02/20 00:36:46;;;;;;;8.83;4.13;;;8.80;99.90;;;;;;5054422;28;20086;-73
2023/02/20 00:39:12;;;;;;;9.50;4.32;;;8.80;99.90;;;;;;5054315;28;20041;-73
2023/02/20 00:41:38;;;;;;;6.90;4.20;;;8.80;99.90;;;;;;5053992;28;20067;-73
2023/02/20 00:44:04;;;;;;;8.50;4.25;;;9.10;99.90;;;;;;5053068;28;20052;-74
2023/02/20 00:46:29;;;;;;;9.70;4.68;;;9.00;99.90;;;;;;5054919;28;20051;-73
2023/02/20 00:48:55;;;;;;;7.95;4.65;;;8.80;99.90;;;;;;5054017;28;20033;-73
2023/02/20 00:51:21;;;;;;;6.20;4.07;;;8.80;99.90;;;;;;5053929;28;20075;-73
2023/02/20 00:53:46;;;;;;;9.32;4.93;;;8.80;99.90;;;;;;5053857;28;20024;-73
2023/02/20 00:56:12;;;;;;;7.07;4.70;;;8.80;99.90;;;;;;5053721;28;20459;-73
2023/02/20 00:58:38;;;;;;;7.68;4.90;;;8.80;99.90;;;;;;5053224;28;20352;-73
2023/02/20 01:01:04;;;;;;;10.18;5.38;;;8.80;99.90;;;;;;5052731;28;20051;-74
2023/02/20 01:03:29;;;;;;;7.85;4.63;;;8.80;99.90;;;;;;5053739;28;20201;-73
2023/02/20 01:05:55;;;;;;;7.35;4.80;;;8.80;99.90;;;;;;5052720;28;20029;-74
2023/02/20 01:08:21;;;;;;;9.15;5.20;;;8.80;99.90;;;;;;5052337;28;20037;-73
2023/02/20 01:10:46;;;;;;;7.00;4.68;;;8.90;99.90;;;;;;5053676;28;20022;-73
2023/02/20 01:13:12;;;;;;;7.15;4.85;;;9.00;99.90;;;;;;5053487;28;20116;-73
2023/02/20 01:15:38;;;;;;;7.43;5.25;;;9.00;99.90;;;;;;5053454;28;20424;-74
2023/02/20 01:18:04;;;;;;;7.90;4.68;;;8.80;99.90;;;;;;5053442;28;20119;-73
2023/02/20 01:20:30;;;;;;;5.88;4.53;;;8.80;99.90;;;;;;5053159;28;20048;-72
2023/02/20 01:22:56;;;;;;;10.30;4.95;;;8.90;99.90;;;;;;5052226;28;20485;-74
2023/02/20 01:25:22;;;;;;;7.25;4.25;;;8.80;99.90;;;;;;5054011;28;20451;-73
2023/02/20 01:27:48;;;;;;;7.97;3.92;;;8.90;99.90;;;;;;5052932;28;20120;-73
2023/02/20 01:30:14;;;;;;;6.68;4.45;;;8.90;99.90;;;;;;5052931;28;20056;-75
2023/02/20 01:32:40;;;;;;;7.07;4.20;;;8.90;99.90;;;;;;5052990;28;20091;-73
2023/02/20 01:35:06;;;;;;;9.63;4.22;;;9.00;99.90;;;;;;5052998;28;20029;-72
2023/02/20 01:37:32;;;;;;;6.05;4.10;;;9.00;99.90;;;;;;5052395;28;20021;-73
2023/02/20 01:39:58;;;;;;;5.35;3.72;;;8.90;99.90;;;;;;5052930;28;20035;-73
2023/02/20 01:42:27;;;;;;;8.82;4.03;;;8.90;99.90;;;;;;5052908;28;20033;-73
2023/02/20 01:44:52;;;;;;;8.07;3.60;;;8.90;99.90;;;;;;5051330;28;20413;-73
2023/02/20 01:47:21;;;;;;;5.43;3.60;;;8.80;99.90;;;;;;5052829;28;20029;-73
2023/02/20 01:49:49;;;;;;;6.38;3.85;;;8.80;99.90;;;;;;5053514;28;20421;-73
2023/02/20 01:52:16;;;;;;;5.93;3.35;;;8.80;99.90;;;;;;5051782;28;20029;-73
2023/02/20 01:54:46;;;;;;;5.30;3.55;;;8.80;99.90;;;;;;5052744;28;20418;-73
2023/02/20 01:57:19;;;;;;;81.90;38.20;;;8.70;99.90;;;;;;5051521;28;20112;-73
2023/02/20 01:59:46;;;;;;;17.83;8.90;;;8.80;99.90;;;;;;5052675;28;20150;-72
2023/02/20 02:02:12;;;;;;;5.85;4.10;;;8.80;99.90;;;;;;5051766;28;20055;-72
2023/02/20 02:04:40;;;;;;;5.25;3.38;;;8.80;99.90;;;;;;5052779;28;20116;-72
2023/02/20 02:07:06;;;;;;;7.10;3.60;;;8.80;99.90;;;;;;5052928;28;20122;-72
2023/02/20 02:09:51;;;;;;;5.32;3.63;;;8.70;99.90;;;;;;5052560;28;20483;-72
2023/02/20 02:12:17;;;;;;;5.30;3.58;;;8.70;99.90;;;;;;5052574;28;20408;-74
2023/02/20 02:14:43;;;;;;;5.05;3.72;;;8.70;99.90;;;;;;5052433;28;20031;-73
2023/02/20 02:17:29;;;;;;;5.90;4.00;;;8.80;99.90;;;;;;5052424;28;20052;-73
2023/02/20 02:20:40;;;;;;;5.68;3.53;;;8.70;99.90;;;;;;5052166;28;20534;-73
2023/02/20 02:23:30;;;;;;;5.93;3.80;;;8.70;99.90;;;;;;5028617;28;20084;-73
2023/02/20 02:26:25;;;;;;;6.88;4.30;;;8.80;99.90;;;;;;5052113;28;20116;-74
2023/02/20 02:29:29;;;;;;;6.40;4.22;;;8.70;99.90;;;;;;5051269;28;20045;-73
2023/02/20 02:32:26;;;;;;;5.82;4.05;;;8.60;99.90;;;;;;5010067;28;20129;-73
2023/02/20 02:35:25;;;;;;;7.43;4.38;;;8.50;99.90;;;;;;4967844;28;20030;-72
2023/02/20 02:38:07;;;;;;;6.65;4.78;;;8.50;99.90;;;;;;5088602;28;20028;-73
2023/02/20 02:40:50;;;;;;;7.95;5.35;;;8.60;99.90;;;;;;5091071;28;20454;-72
2023/02/20 02:44:04;;;;;;;7.95;5.10;;;8.50;99.90;;;;;;5092025;28;20043;-73
2023/02/20 02:46:43;;;;;;;9.52;6.03;;;8.40;99.90;;;;;;5092064;28;20526;-74
2023/02/20 02:49:43;;;;;;;12.27;6.47;;;8.50;99.90;;;;;;5091945;28;20032;-73
2023/02/20 02:52:11;;;;;;;8.07;5.40;;;8.40;99.90;;;;;;5090689;28;20028;-73
2023/02/20 02:54:37;;;;;;;10.50;5.65;;;8.50;99.90;;;;;;5090608;28;20111;-72
2023/02/20 02:57:23;;;;;;;9.52;6.30;;;8.40;99.90;;;;;;5091232;28;20514;-73
2023/02/20 02:59:59;;;;;;;12.07;7.13;;;8.50;99.90;;;;;;5091518;28;20030;-74
2023/02/20 03:02:26;;;;;;;8.73;5.88;;;8.50;99.90;;;;;;5091888;28;20042;-73
2023/02/20 03:04:53;;;;;;;13.10;6.90;;;8.50;99.90;;;;;;5091973;28;20017;-73
2023/02/20 03:07:20;;;;;;;10.97;6.03;;;8.50;99.90;;;;;;5091641;28;20123;-73
2023/02/20 03:09:56;;;;;;;13.88;7.35;;;8.50;99.90;;;;;;5091391;28;20824;-73
2023/02/20 03:12:25;;;;;;;9.10;6.57;;;8.50;99.90;;;;;;5091555;28;20474;-74
2023/02/20 03:17:51;;;;;;;13.02;6.25;;;8.50;99.90;;;;;;5091808;28;20544;-73
2023/02/20 03:20:21;;;;;;;10.45;6.43;;;8.60;99.90;;;;;;5089970;28;20368;-73
2023/02/20 03:22:52;;;;;;;10.00;5.97;;;8.70;99.90;;;;;;5090481;28;20035;-74
2023/02/20 03:25:22;;;;;;;9.48;6.43;;;8.70;99.90;;;;;;5091565;28;20036;-74
2023/02/20 03:27:58;;;;;;;9.75;5.80;;;8.70;99.90;;;;;;5089690;28;20051;-73
2023/02/20 03:30:46;;;;;;;10.65;6.78;;;8.60;99.90;;;;;;5091070;28;20032;-74
2023/02/20 03:44:46;;;;;;;12.73;6.35;;;8.70;99.90;;;;;;5091016;28;20035;-73
2023/02/20 03:47:17;;;;;;;10.40;6.60;;;8.80;99.90;;;;;;5089893;28;20023;-73
2023/02/20 03:49:45;;;;;;;11.00;7.43;;;8.80;99.90;;;;;;5091923;28;20028;-73
2023/02/20 03:52:11;;;;;;;14.73;8.48;;;8.80;99.90;;;;;;5089695;28;20044;-73
2023/02/20 03:54:38;;;;;;;12.40;7.78;;;8.80;99.90;;;;;;5090851;28;20034;-73
2023/02/20 03:57:17;;;;;;;12.20;7.25;;;8.80;99.90;;;;;;5090993;28;20028;-74
2023/02/20 04:00:11;;;;;;;14.23;7.80;;;8.80;99.90;;;;;;5090864;28;20020;-72
2023/02/20 04:02:41;;;;;;;13.60;7.65;;;8.70;99.90;;;;;;5083117;28;20040;-74
2023/02/20 04:05:15;;;;;;;19.25;8.60;;;8.80;99.90;;;;;;5091073;28;20016;-72
2023/02/20 04:08:02;;;;;;;15.88;8.43;;;8.80;99.90;;;;;;5089293;28;20027;-73
2023/02/20 04:10:34;;;;;;;15.00;9.18;;;8.90;99.90;;;;;;5090675;28;20117;-73
2023/02/20 04:13:01;;;;;;;15.38;9.60;;;8.90;99.90;;;;;;5090547;28;20129;-72
2023/02/20 04:15:28;;;;;;;17.08;9.27;;;8.90;99.90;;;;;;5090688;28;20024;-73
2023/02/20 04:18:09;;;;;;;15.45;9.32;;;8.90;99.90;;;;;;5090863;28;20024;-73
2023/02/20 04:20:34;;;;;;;17.15;9.52;;;9.00;99.90;;;;;;5089209;28;20034;-74
2023/02/20 04:23:05;;;;;;;17.35;10.20;;;9.00;99.90;;;;;;5089735;28;20032;-73
2023/02/20 04:25:50;;;;;;;19.40;10.23;;;9.10;99.90;;;;;;5091146;28;20016;-73
2023/02/20 04:28:16;;;;;;;17.73;10.65;;;9.00;99.90;;;;;;5090151;28;20147;-74
2023/02/20 04:30:42;;;;;;;19.77;10.55;;;9.10;99.90;;;;;;5090400;28;20028;-74
2023/02/20 04:33:12;;;;;;;16.80;10.05;;;9.10;99.90;;;;;;5090325;28;20025;-73
2023/02/20 04:35:39;;;;;;;18.23;9.60;;;9.10;99.90;;;;;;5090344;28;20074;-73
2023/02/20 04:38:05;;;;;;;19.38;10.15;;;9.10;99.90;;;;;;5090378;28;20081;-74
2023/02/20 04:40:30;;;;;;;15.23;9.60;;;9.00;99.90;;;;;;5089714;28;20507;-74
2023/02/20 04:42:56;;;;;;;22.95;9.95;;;9.10;99.90;;;;;;5090279;28;20039;-73
2023/02/20 04:45:22;;;;;;;18.42;9.75;;;9.10;99.90;;;;;;5090333;28;20044;-72
2023/02/20 04:47:47;;;;;;;20.58;9.88;;;9.10;99.90;;;;;;5090487;28;20028;-72
2023/02/20 04:50:20;;;;;;;22.05;9.60;;;9.20;99.90;;;;;;5089179;28;20096;-72
2023/02/20 04:52:46;;;;;;;17.13;9.52;;;9.20;99.90;;;;;;5090582;28;20028;-72
2023/02/20 04:55:12;;;;;;;16.63;9.13;;;9.20;99.90;;;;;;5090331;28;20395;-72
2023/02/20 04:57:38;;;;;;;19.95;9.95;;;9.20;99.90;;;;;;5090167;28;20115;-72
2023/02/20 05:00:07;;;;;;;16.10;9.30;;;9.20;99.90;;;;;;5090253;28;20115;-73
2023/02/20 05:02:33;;;;;;;19.83;9.95;;;9.20;99.90;;;;;;5090115;28;20081;-73
2023/02/20 05:04:59;;;;;;;16.90;8.90;;;9.20;99.90;;;;;;5090196;28;20024;-73
2023/02/20 05:07:25;;;;;;;19.95;9.45;;;9.10;99.90;;;;;;5090604;28;20273;-72
2023/02/20 05:09:50;;;;;;;18.00;10.05;;;9.20;99.90;;;;;;5089922;28;20474;-72
2023/02/20 05:12:16;;;;;;;18.67;9.55;;;9.10;99.90;;;;;;5089766;28;20032;-74
2023/02/20 05:14:42;;;;;;;18.77;9.93;;;9.20;99.90;;;;;;5089857;28;20118;-74
2023/02/20 05:17:07;;;;;;;16.60;9.50;;;9.20;99.90;;;;;;5090058;28;20059;-73
2023/02/20 05:19:33;;;;;;;19.58;9.25;;;9.20;99.90;;;;;;5091496;28;20028;-73
2023/02/20 05:24:44;;;;;;;19.42;8.93;;;9.30;99.90;;;;;;5093630;28;20035;-73
2023/02/20 05:27:10;;;;;;;21.45;9.23;;;9.30;99.90;;;;;;5093600;28;20037;-73
2023/02/20 05:29:36;;;;;;;19.15;9.15;;;9.20;99.90;;;;;;5093462;28;20170;-73
2023/02/20 05:32:01;;;;;;;17.35;9.70;;;9.30;99.90;;;;;;5093509;28;20304;-73
2023/02/20 05:34:27;;;;;;;21.08;9.38;;;9.30;99.90;;;;;;5093801;28;20020;-73
2023/02/20 05:36:53;;;;;;;18.63;8.98;;;9.30;99.90;;;;;;5093335;28;20032;-73
2023/02/20 05:39:19;;;;;;;23.88;9.00;;;9.20;99.90;;;;;;5093312;28;20456;-74
2023/02/20 05:41:45;;;;;;;17.92;9.68;;;9.50;99.90;;;;;;5093226;28;20044;-73
2023/02/20 05:44:11;;;;;;;15.27;8.02;;;9.40;99.90;;;;;;5093471;28;20024;-73
2023/02/20 05:46:41;;;;;;;21.55;7.85;;;9.40;99.90;;;;;;5092644;28;20028;-73
2023/02/20 05:49:08;;;;;;;47.47;24.08;;;9.30;99.90;;;;;;5093097;28;20106;-73
2023/02/20 05:51:33;;;;;;;38.88;17.08;;;9.30;99.90;;;;;;5092978;28;20028;-73
2023/02/20 05:53:59;;;;;;;15.10;7.47;;;9.60;99.90;;;;;;5092860;28;20568;-73
2023/02/20 05:56:25;;;;;;;20.75;8.00;;;9.40;99.90;;;;;;5092738;28;20051;-73
2023/02/20 05:58:50;;;;;;;23.23;8.20;;;9.40;99.90;;;;;;5093107;28;20024;-74
2023/02/20 06:01:22;;;;;;;14.95;6.80;;;9.40;99.90;;;;;;5093086;28;20039;-72
2023/02/20 06:03:48;;;;;;;15.82;6.68;;;9.40;99.90;;;;;;5092924;28;20281;-72
2023/02/20 06:06:14;;;;;;;18.08;6.97;;;9.40;99.90;;;;;;5091756;28;20032;-73
2023/02/20 06:08:40;;;;;;;18.92;7.35;;;9.40;99.90;;;;;;5091476;28;20378;-73
2023/02/20 06:11:06;;;;;;;19.98;7.28;;;9.50;99.90;;;;;;5092441;28;20032;-72
2023/02/20 06:13:32;;;;;;;18.27;6.88;;;9.40;99.90;;;;;;5092150;28;20024;-73
2023/02/20 06:15:58;;;;;;;17.25;6.40;;;9.50;99.90;;;;;;5092732;28;20043;-73
2023/02/20 06:18:23;;;;;;;16.00;7.03;;;9.50;99.90;;;;;;5091371;28;20025;-73
2023/02/20 06:20:49;;;;;;;15.32;6.35;;;9.50;99.90;;;;;;5092337;28;20024;-73
2023/02/20 06:23:14;;;;;;;12.27;6.40;;;9.50;99.90;;;;;;5092255;28;20472;-73
2023/02/20 06:25:40;;;;;;;14.90;6.00;;;9.50;99.90;;;;;;5092677;28;20063;-72
2023/02/20 06:28:06;;;;;;;18.70;6.43;;;9.60;99.90;;;;;;5092035;28;20382;-74
2023/02/20 06:30:31;;;;;;;14.00;6.32;;;9.50;99.90;;;;;;5092005;28;20082;-74
2023/02/20 06:32:57;;;;;;;18.98;7.32;;;9.50;99.90;;;;;;5091978;28;20102;-72
2023/02/20 06:35:22;;;;;;;14.52;6.60;;;9.60;99.90;;;;;;5091835;28;20032;-71
2023/02/20 06:37:48;;;;;;;15.45;6.00;;;9.50;99.90;;;;;;5092387;28;20031;-73
2023/02/20 06:40:14;;;;;;;13.02;5.82;;;9.60;99.90;;;;;;5091852;28;20035;-73
2023/02/20 06:42:39;;;;;;;18.45;6.68;;;9.60;99.90;;;;;;5091669;28;20036;-73
2023/02/20 06:45:05;;;;;;;17.55;5.95;;;9.80;99.90;;;;;;5091789;28;20090;-73
2023/02/20 06:47:31;;;;;;;17.90;6.50;;;9.60;99.90;;;;;;5091816;28;20062;-73
2023/02/20 06:49:57;;;;;;;14.60;5.72;;;9.60;99.90;;;;;;5091706;28;20370;-73
2023/02/20 06:52:22;;;;;;;10.65;5.50;;;9.70;99.90;;;;;;5091956;28;20032;-73
2023/02/20 06:54:48;;;;;;;17.98;6.38;;;9.70;99.90;;;;;;5090249;28;20036;-73
2023/02/20 06:57:14;;;;;;;14.68;6.18;;;9.70;99.90;;;;;;5091690;28;20028;-73
2023/02/20 06:59:41;;;;;;;15.88;6.45;;;9.70;99.90;;;;;;5090555;28;20028;-73
2023/02/20 07:02:13;;;;;;;13.40;6.47;;;9.60;99.90;;;;;;5083295;28;20028;-73
2023/02/20 07:04:39;;;;;;;15.48;6.35;;;9.80;99.90;;;;;;5051598;28;20459;-71
2023/02/20 07:07:05;;;;;;;17.15;6.95;;;9.70;99.90;;;;;;5051185;28;20037;-70
2023/02/20 07:09:31;;;;;;;15.25;6.22;;;9.80;99.90;;;;;;5050801;28;20029;-74
2023/02/20 07:11:57;;;;;;;14.27;6.57;;;9.80;99.90;;;;;;5050903;28;20087;-73
2023/02/20 07:14:23;;;;;;;17.10;7.05;;;9.80;99.90;;;;;;5050883;28;20024;-72
2023/02/20 07:16:48;;;;;;;19.15;6.85;;;9.70;99.90;;;;;;5051455;28;20029;-73
2023/02/20 07:19:14;;;;;;;13.52;7.05;;;9.70;99.90;;;;;;5050734;28;20099;-73
2023/02/20 07:21:40;;;;;;;13.27;6.45;;;9.90;99.90;;;;;;5051020;28;20136;-73
2023/02/20 07:24:06;;;;;;;14.80;6.70;;;9.80;99.90;;;;;;5051014;28;20037;-73
2023/02/20 07:26:32;;;;;;;17.20;7.45;;;9.80;99.90;;;;;;5051179;28;20506;-73
2023/02/20 07:28:59;;;;;;;19.77;8.00;;;9.80;99.90;;;;;;5050926;28;20045;-73
2023/02/20 07:31:26;;;;;;;16.83;7.57;;;9.70;99.90;;;;;;5051287;28;20029;-73
2023/02/20 07:33:51;;;;;;;16.10;7.30;;;9.70;99.90;;;;;;5050846;28;20024;-72
2023/02/20 07:36:17;;;;;;;13.45;7.30;;;9.60;99.90;;;;;;5049740;28;20043;-73
2023/02/20 07:38:51;;;;;;;20.50;7.25;;;9.60;99.90;;;;;;5050654;28;20029;-73
2023/02/20 07:41:17;;;;;;;18.05;7.93;;;9.80;99.90;;;;;;5050819;28;20037;-73
2023/02/20 07:43:42;;;;;;;17.17;7.53;;;9.60;99.90;;;;;;5051204;28;20025;-73
2023/02/20 07:46:08;;;;;;;12.75;7.63;;;9.60;99.90;;;;;;5050772;28;20067;-71
2023/02/20 07:48:35;;;;;;;16.02;8.43;;;9.60;99.90;;;;;;5050530;28;20048;-73
2023/02/20 07:51:01;;;;;;;17.90;7.95;;;9.70;99.90;;;;;;5050627;28;20033;-74
2023/02/20 07:53:27;;;;;;;21.25;8.60;;;9.60;99.90;;;;;;5050436;28;20346;-73
2023/02/20 07:55:52;;;;;;;16.58;8.60;;;9.50;99.90;;;;;;5049204;28;20017;-72
2023/02/20 07:58:18;;;;;;;21.15;9.23;;;9.60;99.90;;;;;;5050854;28;20028;-71
2023/02/20 08:00:44;;;;;;;18.13;9.05;;;9.60;99.90;;;;;;5050302;28;20122;-72
2023/02/20 08:03:10;;;;;;;17.48;8.68;;;9.60;99.90;;;;;;5049317;28;20024;-71
2023/02/20 08:05:35;;;;;;;21.10;10.05;;;9.70;99.90;;;;;;5050363;28;20021;-71
2023/02/20 08:08:01;;;;;;;17.27;8.98;;;9.90;99.90;;;;;;5050345;28;20318;-72
2023/02/20 08:10:28;;;;;;;17.08;9.57;;;9.70;99.90;;;;;;5050649;28;20031;-71
2023/02/20 08:12:54;;;;;;;18.70;10.25;;;9.80;99.90;;;;;;5050492;28;20033;-73
2023/02/20 08:15:22;;;;;;;20.52;10.30;;;9.70;99.90;;;;;;5050080;28;20520;-76
2023/02/20 08:17:48;;;;;;;20.88;9.90;;;9.60;99.90;;;;;;5050329;28;20025;-73
2023/02/20 08:20:17;;;;;;;26.85;10.52;;;9.70;99.90;;;;;;5050145;28;20029;-80
2023/02/20 08:22:44;;;;;;;21.08;11.80;;;9.60;99.90;;;;;;5050523;28;20078;-72
2023/02/20 08:25:10;;;;;;;24.70;11.65;;;9.80;99.90;;;;;;5048963;28;20363;-73
2023/02/20 08:27:37;;;;;;;20.92;11.18;;;9.80;99.90;;;;;;5048812;28;20048;-73
2023/02/20 08:30:05;;;;;;;25.92;12.73;;;9.80;99.90;;;;;;5049487;28;20048;-73
2023/02/20 08:32:30;;;;;;;24.08;12.15;;;9.80;99.80;;;;;;5049010;28;20056;-72
2023/02/20 08:34:56;;;;;;;28.80;13.30;;;9.80;99.80;;;;;;5050155;28;20030;-72
2023/02/20 08:37:22;;;;;;;25.83;12.23;;;9.80;99.90;;;;;;5049275;28;20018;-73
2023/02/20 08:39:47;;;;;;;26.55;12.95;;;9.90;99.90;;;;;;5049620;28;20032;-75
2023/02/20 08:42:16;;;;;;;22.75;12.77;;;10.00;99.20;;;;;;5049783;28;20111;-71
2023/02/20 08:44:42;;;;;;;24.45;13.55;;;10.10;99.40;;;;;;5048673;28;20478;-73
2023/02/20 08:47:07;;;;;;;30.85;14.93;;;10.00;99.00;;;;;;5050020;28;20026;-72
2023/02/20 08:49:33;;;;;;;27.05;14.30;;;10.00;99.10;;;;;;5050447;28;20051;-72
2023/02/20 08:51:59;;;;;;;26.02;14.27;;;10.10;99.00;;;;;;5049914;28;20094;-72
2023/02/20 08:54:25;;;;;;;28.33;14.88;;;10.10;98.90;;;;;;5050724;28;20029;-71
2023/02/20 08:56:51;;;;;;;25.90;14.52;;;10.20;99.10;;;;;;5053990;28;20374;-71
2023/02/20 08:59:16;;;;;;;27.65;15.73;;;10.20;98.90;;;;;;5053797;28;20028;-71
2023/02/20 09:01:42;;;;;;;27.20;14.82;;;10.30;99.10;;;;;;5054717;28;20029;-71
2023/02/20 09:04:09;;;;;;;28.90;15.43;;;10.40;99.10;;;;;;5052638;28;20026;-70
2023/02/20 09:06:35;;;;;;;30.30;15.02;;;10.60;98.90;;;;;;5053966;28;20041;-70
2023/02/20 09:09:01;;;;;;;26.23;15.52;;;10.80;98.80;;;;;;5053584;28;20036;-71
2023/02/20 09:11:27;;;;;;;29.33;15.60;;;10.60;98.90;;;;;;5053447;28;20029;-71
2023/02/20 09:13:53;;;;;;;24.73;14.40;;;10.90;98.90;;;;;;5053469;28;20017;-71
2023/02/20 09:16:20;;;;;;;31.35;14.93;;;10.80;98.60;;;;;;5053958;28;20102;-70
2023/02/20 09:18:47;;;;;;;27.58;14.88;;;10.70;98.90;;;;;;5052432;28;20469;-72
2023/02/20 09:21:15;;;;;;;28.42;14.65;;;10.60;99.10;;;;;;5053139;28;20048;-71
2023/02/20 09:23:40;;;;;;;30.48;14.52;;;10.70;99.00;;;;;;5053454;28;20032;-72
2023/02/20 09:26:06;;;;;;;32.60;18.10;;;10.80;99.00;;;;;;5053246;28;20037;-74
2023/02/20 09:28:32;;;;;;;26.58;14.57;;;10.50;98.80;;;;;;5053501;28;20160;-74
2023/02/20 09:30:59;;;;;;;27.23;14.00;;;10.70;99.10;;;;;;5053310;28;20103;-72
2023/02/20 09:33:26;;;;;;;31.87;14.90;;;10.60;99.30;;;;;;5053055;28;20463;-74
2023/02/20 09:35:53;;;;;;;29.43;15.67;;;10.60;99.40;;;;;;5053008;28;20025;-71
2023/02/20 09:38:25;;;;;;;27.40;14.43;;;10.50;99.70;;;;;;5053070;28;20031;-74
2023/02/20 09:40:56;;;;;;;28.75;14.82;;;10.40;99.90;;;;;;5052291;28;20036;-72
2023/02/20 09:43:33;;;;;;;22.02;13.65;;;10.20;99.90;;;;;;5053049;28;20044;-72
2023/02/20 09:46:14;;;;;;;27.25;13.10;;;10.30;99.90;;;;;;5053091;28;20343;-71
2023/02/20 09:49:09;;;;;;;23.38;14.25;;;10.40;99.90;;;;;;5051856;28;20109;-73
2023/02/20 09:51:40;;;;;;;26.92;14.18;;;10.40;99.90;;;;;;5051662;28;20461;-73
2023/02/20 09:54:32;;;;;;;26.08;14.70;;;10.20;99.90;;;;;;5052788;28;20037;-72
2023/02/20 09:57:01;;;;;;;26.08;14.50;;;10.20;99.90;;;;;;5052598;28;20347;-72
2023/02/20 09:59:36;;;;;;;28.42;14.68;;;10.20;99.90;;;;;;5052405;28;20056;-73
2023/02/20 10:02:23;;;;;;;30.10;15.15;;;10.30;99.90;;;;;;5052383;28;20033;-71
2023/02/20 10:04:51;;;;;;;23.20;13.98;;;10.20;99.90;;;;;;5053200;28;20029;-72
2023/02/20 10:07:32;;;;;;;29.38;14.50;;;10.10;99.90;;;;;;5053004;28;20377;-74
2023/02/20 10:10:01;;;;;;;25.90;15.00;;;10.10;99.90;;;;;;5052821;28;20036;-73
2023/02/20 10:12:45;;;;;;;27.40;15.25;;;10.20;99.90;;;;;;5052574;28;20025;-71
2023/02/20 10:15:19;;;;;;;31.02;15.43;;;10.10;99.90;;;;;;5052229;28;20028;-72
2023/02/20 10:18:16;;;;;;;27.15;14.98;;;10.20;99.90;;;;;;5052344;28;20040;-69
2023/02/20 10:20:47;;;;;;;25.40;13.57;;;10.20;99.90;;;;;;5051977;28;20116;-73
2023/02/20 10:23:35;;;;;;;28.88;16.08;;;10.20;99.90;;;;;;5052000;28;20281;-72
2023/02/20 10:26:07;;;;;;;;;;;10.10;99.90;;;;;;5052631;28;20461;-73
2023/02/20 10:28:33;;;;;;;31.67;15.05;;;10.10;99.90;;;;;;5052353;28;20355;-70
2023/02/20 10:31:32;;;;;;;31.58;15.68;;;10.20;99.90;;;;;;5051554;28;20044;-71
2023/02/20 10:34:10;;;;;;;34.08;15.60;;;10.10;99.90;;;;;;5051961;28;20112;-73
2023/02/20 10:36:44;;;;;;;27.88;15.73;;;10.20;99.90;;;;;;5051718;28;20041;-74
2023/02/20 10:39:19;;;;;;;29.92;15.18;;;10.20;99.90;;;;;;5052064;28;20108;-73
2023/02/20 10:42:16;;;;;;;34.80;16.35;;;10.10;99.90;;;;;;5050368;28;20037;-71
2023/02/20 10:44:52;;;;;;;27.88;15.00;;;10.10;99.90;;;;;;5046034;28;20040;-73
2023/02/20 10:47:51;;;;;;;43.38;16.73;;;10.10;99.90;;;;;;5041847;28;20118;-71
2023/02/20 10:50:24;;;;;;;25.75;15.15;;;10.20;99.90;;;;;;5044439;28;20036;-71
2023/02/20 10:53:17;;;;;;;32.05;16.27;;;10.20;99.90;;;;;;5051383;28;20118;-71
2023/02/20 10:56:15;;;;;;;32.30;15.07;;;10.20;99.90;;;;;;5042109;28;20183;-70
2023/02/20 10:59:16;;;;;;;34.00;16.05;;;10.30;99.90;;;;;;5042401;28;20372;-71
2023/02/20 11:01:53;;;;;;;30.45;16.40;;;10.20;99.90;;;;;;5049881;28;20375;-72
2023/02/20 11:04:35;;;;;;;28.60;15.05;;;10.30;99.90;;;;;;5042848;28;20029;-71
2023/02/20 11:07:17;;;;;;;39.83;16.10;;;10.20;99.90;;;;;;5049510;28;20025;-71
2023/02/20 11:09:44;;;;;;;30.02;16.45;;;10.20;99.90;;;;;;5040801;28;20052;-70
2023/02/20 11:12:26;;;;;;;29.02;16.25;;;10.20;99.90;;;;;;5051067;28;20455;-70
2023/02/20 11:14:55;;;;;;;29.52;15.90;;;10.20;99.90;;;;;;5050935;28;20386;-71
2023/02/20 11:17:28;;;;;;;33.35;16.50;;;10.10;99.90;;;;;;5050878;28;20029;-72
2023/02/20 11:19:56;;;;;;;30.30;16.45;;;10.10;99.90;;;;;;5050516;28;20083;-72
2023/02/20 11:23:00;;;;;;;33.85;16.00;;;10.10;99.90;;;;;;5051070;28;20459;-71
2023/02/20 11:25:30;;;;;;;32.33;16.08;;;10.20;99.90;;;;;;4969907;28;20097;-72
2023/02/20 11:27:59;;;;;;;33.08;16.52;;;10.10;99.90;;;;;;5037814;28;20053;-73
2023/02/20 11:30:34;;;;;;;30.33;16.23;;;10.20;99.90;;;;;;5050911;28;20032;-71
2023/02/20 11:33:27;;;;;;;33.97;16.70;;;10.30;99.90;;;;;;5049514;28;20021;-71
2023/02/20 11:36:07;;;;;;;34.75;16.15;;;10.30;99.90;;;;;;5045552;28;20021;-71
2023/02/20 11:38:35;;;;;;;33.33;16.42;;;10.20;99.90;;;;;;5050497;28;20451;-73
2023/02/20 11:41:03;;;;;;;38.17;16.73;;;10.10;99.90;;;;;;5050314;28;20450;-71
2023/02/20 11:43:38;;;;;;;35.45;18.08;;;10.10;99.90;;;;;;5050766;28;20181;-72
2023/02/20 11:46:22;;;;;;;31.83;16.70;;;10.00;99.90;;;;;;5050385;28;20374;-73
2023/02/20 11:49:04;;;;;;;33.75;17.63;;;10.00;99.90;;;;;;5049610;28;20036;-76
2023/02/20 11:51:37;;;;;;;31.42;17.50;;;10.00;99.90;;;;;;5049464;28;20328;-75
2023/02/20 11:54:24;;;;;;;39.10;18.73;;;10.00;99.90;;;;;;5050187;28;20372;-72
2023/02/20 11:57:01;;;;;;;35.75;18.70;;;10.00;99.90;;;;;;5048931;28;20048;-71
2023/02/20 11:59:46;;;;;;;34.22;18.10;;;10.00;99.90;;;;;;5049931;28;20071;-72
2023/02/20 12:02:21;;;;;;;39.53;17.95;;;10.00;99.90;;;;;;5050418;28;20029;-73
2023/02/20 12:05:07;;;;;;;35.45;17.52;;;9.90;99.90;;;;;;5050643;28;20036;-72
2023/02/20 12:07:44;;;;;;;40.60;18.02;;;9.90;99.90;;;;;;5049155;28;20047;-73
2023/02/20 12:10:24;;;;;;;35.42;17.60;;;10.00;99.90;;;;;;5050095;28;20033;-73
2023/02/20 12:12:51;;;;;;;34.22;17.92;;;10.10;99.90;;;;;;5050102;28;20033;-73
2023/02/20 12:15:19;;;;;;;38.20;18.13;;;10.10;99.90;;;;;;5049073;28;20122;-73
2023/02/20 12:18:25;;;;;;;42.70;19.33;;;10.10;99.90;;;;;;5048919;28;20187;-72
2023/02/20 12:21:18;;;;;;;31.35;16.80;;;10.10;99.90;;;;;;5050052;28;20438;-72
2023/02/20 12:24:03;;;;;;;38.13;19.00;;;10.20;99.90;;;;;;5049992;28;20100;-72
2023/02/20 12:26:52;;;;;;;37.33;19.63;;;10.10;99.90;;;;;;5049925;28;20328;-72
2023/02/20 12:29:31;;;;;;;45.72;19.10;;;10.10;99.90;;;;;;5050483;28;20372;-71
2023/02/20 12:32:18;;;;;;;39.53;18.50;;;10.00;99.90;;;;;;5054159;28;20359;-72
2023/02/20 12:34:53;;;;;;;;;;;10.10;99.90;;;;;;5053863;28;20025;-72
2023/02/20 12:37:22;;;;;;;38.47;18.90;;;10.10;99.90;;;;;;5053002;28;19992;-72
2023/02/20 12:40:02;;;;;;;37.08;16.98;;;10.10;99.90;;;;;;5053888;28;20098;-72
2023/02/20 12:42:50;;;;;;;38.92;18.00;;;10.00;99.90;;;;;;5053898;28;20041;-72
2023/02/20 12:45:38;;;;;;;38.88;18.15;;;10.00;99.90;;;;;;5054070;28;20037;-72
2023/02/20 12:48:17;;;;;;;36.47;17.55;;;10.00;99.90;;;;;;5053840;28;20091;-73
2023/02/20 12:51:09;;;;;;;36.53;17.75;;;10.00;99.90;;;;;;5054436;28;20029;-73
2023/02/20 12:54:06;;;;;;;43.70;17.92;;;9.90;99.90;;;;;;5053596;28;20036;-72
2023/02/20 12:56:53;;;;;;;32.15;15.70;;;9.90;99.90;;;;;;5052417;28;20064;-71
2023/02/20 12:59:37;;;;;;;36.90;16.48;;;9.90;99.90;;;;;;5053743;28;20033;-73
2023/02/20 13:02:37;;;;;;;40.63;18.15;;;10.00;99.90;;;;;;5053571;28;20033;-73
2023/02/20 13:05:07;;;;;;;38.42;15.95;;;9.90;99.90;;;;;;5052838;28;20036;-72
2023/02/20 13:07:50;;;;;;;34.50;16.80;;;9.80;99.90;;;;;;5054080;28;20023;-80
2023/02/20 13:10:32;;;;;;;39.28;17.13;;;9.90;99.90;;;;;;5054432;28;20044;-71
2023/02/20 13:12:59;;;;;;;33.45;16.55;;;9.90;99.90;;;;;;5053471;28;20041;-73
2023/02/20 13:15:31;;;;;;;37.00;16.38;;;10.10;99.90;;;;;;5053226;28;20021;-72
2023/02/20 13:18:05;;;;;;;33.80;17.40;;;9.90;99.90;;;;;;5053317;28;20426;-73
2023/02/20 13:20:37;;;;;;;42.08;16.88;;;10.00;99.90;;;;;;5052009;28;20025;-73
2023/02/20 13:23:04;;;;;;;33.00;17.27;;;10.10;99.90;;;;;;5052994;28;20074;-73
2023/02/20 13:25:30;;;;;;;35.83;16.02;;;10.00;99.90;;;;;;5053588;28;20021;-73